Terminal Aerodrome Forecast
Issued by NWS Missoula, MT

Home | Current Version | Previous Version | Text Only | Print | Product List | Glossary On
Versions: 1 2 3 4 5 6 7 8 9 10 11 12 13 14 15 16 17 18 19 20 21
000
FTUS45 KMSO 160520
TAFGPI
TAF
KGPI 160520Z 1606/1706 VRB03KT 5SM BR OVC007
     FM161200 21005KT 2SM -SHSN BR SCT007 BKN015 OVC035
     FM161500 20005KT 4SM BR VCSH BKN015
     FM161800 22005KT 6SM BR OVC050=

USA.gov is the U.S. government's official web portal to all federal, state and local government web resources and services.